createdAt,value
2017-08-03T00:01:47.120Z,16.50
2017-08-03T00:04:15.476Z,16.60
2017-08-03T00:06:43.778Z,16.60
2017-08-03T00:09:12.080Z,16.60
2017-08-03T00:11:40.536Z,16.50
2017-08-03T00:14:09.607Z,16.40
2017-08-03T00:16:37.932Z,16.40
2017-08-03T00:19:07.064Z,16.40
2017-08-03T00:21:35.408Z,16.40
2017-08-03T00:24:08.552Z,16.40
2017-08-03T00:26:36.869Z,16.30
2017-08-03T00:29:06.163Z,16.30
2017-08-03T00:31:34.620Z,16.30
2017-08-03T00:34:02.910Z,16.40
2017-08-03T00:36:32.024Z,16.30
2017-08-03T00:39:01.135Z,16.30
2017-08-03T00:41:30.205Z,16.30
2017-08-03T00:43:58.504Z,16.30
2017-08-03T00:46:27.012Z,16.30
2017-08-03T00:48:55.318Z,16.20
2017-08-03T00:51:24.382Z,16.20
2017-08-03T00:53:52.800Z,16.20
2017-08-03T00:56:21.144Z,16.30
2017-08-03T00:58:49.483Z,16.30
2017-08-03T01:01:17.783Z,16.20
2017-08-03T01:03:46.887Z,16.20
2017-08-03T01:06:18.269Z,16.10
2017-08-03T01:08:46.619Z,16.10
2017-08-03T01:11:14.908Z,16.10
2017-08-03T01:13:43.215Z,16.10
2017-08-03T01:16:11.596Z,16.10
2017-08-03T01:18:39.904Z,16.10
2017-08-03T01:21:08.962Z,16.00
2017-08-03T01:23:38.080Z,16.00
2017-08-03T01:26:06.431Z,16.00
2017-08-03T01:28:34.736Z,16.00
2017-08-03T01:31:03.088Z,16.00
2017-08-03T01:33:32.160Z,16.00
2017-08-03T01:36:00.444Z,16.00
2017-08-03T01:38:28.797Z,16.00
2017-08-03T01:40:57.149Z,16.00
2017-08-03T01:43:25.534Z,16.00
2017-08-03T01:45:54.717Z,16.10
2017-08-03T01:48:23.082Z,16.00
2017-08-03T01:50:52.268Z,16.10
2017-08-03T01:53:21.380Z,16.00
2017-08-03T01:55:51.393Z,16.10
2017-08-03T01:58:20.465Z,16.00
2017-08-03T02:00:48.817Z,16.00
2017-08-03T02:03:17.164Z,16.00
2017-08-03T02:05:45.455Z,16.00
2017-08-03T02:08:13.799Z,16.00
2017-08-03T02:10:42.134Z,15.90
2017-08-03T02:13:10.488Z,16.00
2017-08-03T02:15:38.845Z,16.00
2017-08-03T02:18:07.172Z,16.00
2017-08-03T02:20:35.581Z,16.00
2017-08-03T02:23:03.884Z,16.00
2017-08-03T02:25:32.283Z,15.90
2017-08-03T02:28:00.597Z,16.00
2017-08-03T02:30:29.696Z,16.10
2017-08-03T02:32:58.774Z,16.10
2017-08-03T02:35:27.130Z,16.10
2017-08-03T02:37:55.417Z,16.10
2017-08-03T02:40:23.723Z,16.20
2017-08-03T02:42:52.068Z,16.10
2017-08-03T02:45:21.120Z,16.20
2017-08-03T02:47:49.422Z,16.20
2017-08-03T02:50:17.756Z,16.30
2017-08-03T02:52:46.823Z,16.40
2017-08-03T02:55:15.112Z,16.40
2017-08-03T02:57:43.480Z,16.60
2017-08-03T03:00:11.782Z,16.50
2017-08-03T03:02:40.144Z,16.50
2017-08-03T03:05:10.028Z,16.60
2017-08-03T03:07:39.147Z,16.70
2017-08-03T03:10:08.243Z,16.80
2017-08-03T03:12:37.316Z,17.00
2017-08-03T03:15:05.669Z,17.00
2017-08-03T03:17:33.964Z,17.00
2017-08-03T03:20:02.303Z,17.00
2017-08-03T03:22:30.599Z,16.90
2017-08-03T03:24:58.941Z,16.90
2017-08-03T03:27:27.250Z,16.90
2017-08-03T03:29:55.680Z,17.00
2017-08-03T03:32:24.744Z,17.00
2017-08-03T03:34:53.088Z,16.90
2017-08-03T03:37:22.144Z,16.90
2017-08-03T03:39:50.488Z,16.90
2017-08-03T03:42:19.544Z,17.00
2017-08-03T03:44:47.849Z,17.00
2017-08-03T03:47:16.184Z,17.10
2017-08-03T03:49:46.896Z,17.30
2017-08-03T03:52:15.337Z,17.50
2017-08-03T03:54:43.632Z,18.00
2017-08-03T03:57:11.940Z,18.20
2017-08-03T03:59:40.296Z,18.40
2017-08-03T04:02:08.613Z,18.40
2017-08-03T04:04:36.971Z,18.40
2017-08-03T04:07:05.318Z,18.40
2017-08-03T04:09:33.609Z,18.20
2017-08-03T04:12:02.725Z,17.80
2017-08-03T04:14:31.024Z,17.80
2017-08-03T04:17:00.124Z,17.60
2017-08-03T04:19:30.496Z,17.60
2017-08-03T04:21:58.797Z,17.50
2017-08-03T04:24:27.105Z,17.90
2017-08-03T04:26:55.441Z,18.20
2017-08-03T04:29:24.499Z,18.40
2017-08-03T04:31:53.120Z,18.40
2017-08-03T04:34:21.416Z,18.30
2017-08-03T04:36:49.717Z,18.10
2017-08-03T04:39:18.924Z,17.90
2017-08-03T04:41:47.219Z,17.90
2017-08-03T04:44:16.336Z,17.90
2017-08-03T04:46:45.400Z,17.90
2017-08-03T04:49:13.748Z,17.90
2017-08-03T04:51:42.062Z,17.90
2017-08-03T04:54:10.431Z,17.90
2017-08-03T04:56:38.825Z,17.80
2017-08-03T04:59:07.177Z,17.80
2017-08-03T05:01:35.525Z,17.80
2017-08-03T05:04:03.824Z,17.80
2017-08-03T05:06:32.176Z,17.80
2017-08-03T05:09:00.477Z,17.80
2017-08-03T05:11:28.775Z,17.80
2017-08-03T05:13:57.123Z,17.90
2017-08-03T05:16:26.250Z,17.90
2017-08-03T05:18:54.595Z,17.90
2017-08-03T05:21:22.888Z,18.60
2017-08-03T05:23:51.228Z,18.80
2017-08-03T05:26:19.524Z,19.00
2017-08-03T05:28:47.821Z,19.20
2017-08-03T05:31:17.591Z,19.10
2017-08-03T05:33:45.884Z,19.20
2017-08-03T05:36:14.176Z,19.30
2017-08-03T05:38:42.526Z,19.30
2017-08-03T05:41:10.837Z,19.50
2017-08-03T05:43:39.196Z,19.60
2017-08-03T05:46:07.521Z,19.60
2017-08-03T05:48:35.821Z,19.60
2017-08-03T05:51:04.179Z,19.50
2017-08-03T05:53:32.476Z,19.50
2017-08-03T05:56:00.764Z,19.60
2017-08-03T05:58:29.103Z,19.70
2017-08-03T06:00:58.213Z,19.80
2017-08-03T06:03:27.275Z,19.70
2017-08-03T06:05:55.616Z,19.70
2017-08-03T06:08:23.964Z,19.70
2017-08-03T06:10:52.256Z,19.70
2017-08-03T06:13:20.552Z,19.60
2017-08-03T06:15:49.257Z,19.60
2017-08-03T06:18:17.549Z,19.60
2017-08-03T06:20:46.615Z,19.80
2017-08-03T06:23:14.955Z,19.80
2017-08-03T06:25:44.011Z,19.90
2017-08-03T06:28:12.315Z,19.90
2017-08-03T06:30:40.708Z,19.90
2017-08-03T06:33:09.016Z,19.80
2017-08-03T06:35:37.332Z,19.80
2017-08-03T06:38:05.676Z,19.80
2017-08-03T06:40:33.969Z,19.80
2017-08-03T06:43:02.261Z,19.80
2017-08-03T06:45:30.606Z,19.60
2017-08-03T06:47:58.909Z,19.60
2017-08-03T06:50:27.252Z,19.80
2017-08-03T06:52:56.312Z,19.90
2017-08-03T06:55:24.648Z,19.90
2017-08-03T06:57:53.164Z,20.00
2017-08-03T07:00:21.452Z,20.00
2017-08-03T07:02:49.749Z,20.00
2017-08-03T07:05:18.084Z,20.00
2017-08-03T07:07:46.368Z,20.00
2017-08-03T07:10:14.711Z,20.10
2017-08-03T07:12:42.999Z,20.20
2017-08-03T07:15:11.300Z,20.30
2017-08-03T07:17:39.676Z,20.30
2017-08-03T07:20:07.990Z,20.40
2017-08-03T07:22:36.288Z,20.50
2017-08-03T07:25:04.633Z,20.60
2017-08-03T07:27:32.953Z,20.60
2017-08-03T07:30:01.287Z,20.60
2017-08-03T07:32:29.620Z,20.70
2017-08-03T07:34:57.920Z,20.70
2017-08-03T07:37:26.302Z,20.70
2017-08-03T07:39:54.583Z,20.80
2017-08-03T07:42:23.117Z,20.90
2017-08-03T07:44:51.409Z,21.00
2017-08-03T07:47:19.700Z,21.10
2017-08-03T07:49:48.040Z,21.10
2017-08-03T07:52:16.384Z,21.10
2017-08-03T07:54:44.676Z,21.10
2017-08-03T07:57:12.980Z,21.10
2017-08-03T07:59:41.421Z,21.00
2017-08-03T08:02:09.733Z,21.10
2017-08-03T08:04:38.036Z,21.10
2017-08-03T08:07:06.411Z,21.00
2017-08-03T08:09:36.234Z,20.90
2017-08-03T08:12:04.527Z,20.80
2017-08-03T08:14:32.862Z,20.60
2017-08-03T08:17:01.150Z,20.70
2017-08-03T08:19:29.514Z,20.70
2017-08-03T08:21:57.837Z,20.80
2017-08-03T08:24:26.140Z,20.80
2017-08-03T08:26:54.472Z,20.90
2017-08-03T08:29:22.764Z,20.90
2017-08-03T08:31:51.228Z,20.80
2017-08-03T08:34:19.522Z,20.90
2017-08-03T08:36:47.816Z,20.90
2017-08-03T08:39:16.151Z,20.90
2017-08-03T08:41:44.444Z,20.90
2017-08-03T08:44:12.794Z,20.90
2017-08-03T08:46:41.083Z,20.90
2017-08-03T08:49:09.436Z,20.90
2017-08-03T08:51:38.671Z,20.90
2017-08-03T08:54:06.987Z,21.00
2017-08-03T08:56:35.323Z,21.10
2017-08-03T08:59:03.640Z,21.10
2017-08-03T09:01:31.967Z,21.20
2017-08-03T09:04:00.254Z,21.30
2017-08-03T09:06:28.688Z,21.20
2017-08-03T09:08:56.992Z,21.40
2017-08-03T09:11:25.330Z,21.60
2017-08-03T09:13:53.691Z,21.50
2017-08-03T09:16:21.984Z,21.60
2017-08-03T09:18:50.271Z,21.60
2017-08-03T09:21:18.620Z,21.80
2017-08-03T09:23:46.899Z,21.80
2017-08-03T09:26:15.281Z,21.70
2017-08-03T09:28:43.632Z,21.80
2017-08-03T09:31:12.021Z,21.90
2017-08-03T09:33:40.436Z,22.10
2017-08-03T09:36:08.837Z,22.10
2017-08-03T09:38:37.281Z,22.20
2017-08-03T09:41:05.585Z,22.40
2017-08-03T09:43:33.888Z,22.70
2017-08-03T09:46:02.229Z,22.50
2017-08-03T09:48:30.602Z,22.40
2017-08-03T09:50:58.976Z,22.50
2017-08-03T09:53:27.328Z,22.70
2017-08-03T09:56:01.300Z,22.80
2017-08-03T09:58:29.633Z,22.70
2017-08-03T10:00:58.250Z,22.80
2017-08-03T10:03:26.542Z,22.90
2017-08-03T10:05:54.852Z,23.10
2017-08-03T10:08:23.193Z,22.90
2017-08-03T10:10:51.484Z,23.00
2017-08-03T10:13:19.796Z,23.00
2017-08-03T10:15:48.134Z,23.00
2017-08-03T10:18:16.464Z,23.00
2017-08-03T10:20:44.864Z,22.70
2017-08-03T10:23:13.349Z,22.80
2017-08-03T10:25:41.696Z,22.80
2017-08-03T10:28:10.267Z,22.70
2017-08-03T10:30:38.665Z,22.50
2017-08-03T10:33:07.374Z,22.40
2017-08-03T10:35:35.763Z,22.50
2017-08-03T10:38:07.523Z,22.30
2017-08-03T10:40:35.912Z,22.10
2017-08-03T10:43:04.240Z,22.20
2017-08-03T10:45:32.548Z,22.50
2017-08-03T10:48:00.935Z,22.70
2017-08-03T10:50:29.868Z,22.70
2017-08-03T10:52:58.239Z,22.80
2017-08-03T10:55:26.532Z,22.70
2017-08-03T10:57:54.872Z,23.30
2017-08-03T11:00:23.240Z,23.50
2017-08-03T11:02:51.576Z,23.60
2017-08-03T11:05:19.870Z,23.70
2017-08-03T11:07:48.204Z,23.90
2017-08-03T11:10:16.512Z,24.30
2017-08-03T11:12:44.983Z,24.50
2017-08-03T11:15:13.357Z,23.80
2017-08-03T11:17:41.779Z,23.70
2017-08-03T11:20:10.261Z,24.30
2017-08-03T11:22:38.598Z,24.60
2017-08-03T11:25:06.901Z,24.10
2017-08-03T11:27:35.275Z,24.40
2017-08-03T11:30:05.080Z,24.60
2017-08-03T11:32:33.411Z,24.80
2017-08-03T11:35:01.701Z,25.40
2017-08-03T11:37:30.099Z,24.90
2017-08-03T11:39:58.587Z,25.70
2017-08-03T11:42:26.933Z,24.80
2017-08-03T11:44:55.275Z,25.50
2017-08-03T11:47:23.620Z,25.50
2017-08-03T11:49:51.954Z,25.90
2017-08-03T11:52:20.299Z,25.40
2017-08-03T11:54:48.592Z,25.00
2017-08-03T11:57:16.889Z,25.00
2017-08-03T11:59:45.257Z,24.20
2017-08-03T12:02:13.689Z,24.10
2017-08-03T12:04:42.021Z,23.60
2017-08-03T12:07:10.457Z,23.40
2017-08-03T12:09:39.089Z,23.20
2017-08-03T12:12:07.522Z,23.50
2017-08-03T12:14:39.290Z,23.60
2017-08-03T12:17:07.729Z,23.20
2017-08-03T12:19:36.870Z,22.80
2017-08-03T12:22:05.176Z,23.00
2017-08-03T12:24:33.459Z,23.50
2017-08-03T12:27:03.069Z,24.40
2017-08-03T12:29:31.475Z,25.00
2017-08-03T12:31:59.788Z,25.30
2017-08-03T12:34:28.143Z,24.90
2017-08-03T12:36:56.512Z,25.30
2017-08-03T12:39:24.848Z,24.60
2017-08-03T12:41:54.120Z,24.40
2017-08-03T12:44:22.472Z,23.90
2017-08-03T12:46:50.755Z,23.80
2017-08-03T12:49:19.092Z,24.40
2017-08-03T12:51:47.528Z,24.40
2017-08-03T12:54:15.832Z,24.70
2017-08-03T12:56:49.557Z,24.70
2017-08-03T12:59:17.855Z,24.30
2017-08-03T13:01:46.183Z,23.60
2017-08-03T13:04:14.543Z,23.60
2017-08-03T13:06:42.935Z,23.00
2017-08-03T13:09:11.281Z,22.50
2017-08-03T13:11:41.581Z,22.30
2017-08-03T13:14:10.054Z,21.80
2017-08-03T13:16:39.153Z,21.20
2017-08-03T13:19:07.475Z,20.90
2017-08-03T13:21:35.843Z,20.50
2017-08-03T13:24:04.188Z,20.10
2017-08-03T13:26:32.476Z,19.50
2017-08-03T13:29:00.770Z,19.10
2017-08-03T13:31:29.136Z,18.90
2017-08-03T13:33:57.430Z,18.70
2017-08-03T13:36:25.843Z,18.80
2017-08-03T13:38:54.185Z,18.80
2017-08-03T13:41:22.480Z,18.80
2017-08-03T13:43:50.768Z,18.80
2017-08-03T13:46:19.211Z,19.00
2017-08-03T13:48:47.580Z,19.00
2017-08-03T13:51:15.897Z,18.90
2017-08-03T13:53:44.265Z,19.00
2017-08-03T13:56:12.595Z,18.90
2017-08-03T13:58:41.094Z,19.00
2017-08-03T14:01:09.545Z,19.40
2017-08-03T14:03:38.045Z,19.60
2017-08-03T14:06:06.434Z,19.80
2017-08-03T14:08:34.820Z,20.00
2017-08-03T14:11:03.108Z,20.50
2017-08-03T14:13:31.398Z,21.00
2017-08-03T14:15:59.826Z,21.50
2017-08-03T14:18:28.224Z,22.00
2017-08-03T14:20:56.587Z,21.90
2017-08-03T14:23:24.874Z,21.70
2017-08-03T14:25:53.308Z,21.70
2017-08-03T14:28:21.595Z,21.70
2017-08-03T14:30:49.904Z,21.00
2017-08-03T14:33:18.257Z,20.80
2017-08-03T14:35:46.576Z,20.80
2017-08-03T14:38:14.918Z,20.90
2017-08-03T14:40:43.270Z,20.90
2017-08-03T14:43:11.596Z,20.90
2017-08-03T14:45:40.056Z,20.90
2017-08-03T14:48:09.288Z,20.70
2017-08-03T14:50:37.651Z,20.40
2017-08-03T14:53:06.389Z,20.50
2017-08-03T14:55:34.820Z,20.90
2017-08-03T14:58:03.160Z,21.30
2017-08-03T15:00:31.448Z,21.40
2017-08-03T15:02:59.772Z,21.90
2017-08-03T15:05:28.132Z,22.10
2017-08-03T15:07:56.421Z,22.10
2017-08-03T15:10:24.864Z,22.40
2017-08-03T15:12:53.165Z,23.00
2017-08-03T15:15:22.377Z,23.30
2017-08-03T15:17:50.739Z,22.90
2017-08-03T15:20:19.065Z,22.60
2017-08-03T15:22:47.365Z,22.60
2017-08-03T15:25:15.785Z,22.80
2017-08-03T15:27:44.138Z,22.50
2017-08-03T15:30:12.621Z,22.10
2017-08-03T15:32:41.042Z,22.30
2017-08-03T15:35:09.504Z,22.10
2017-08-03T15:37:37.930Z,22.70
2017-08-03T15:40:06.296Z,22.60
2017-08-03T15:42:34.628Z,22.60
2017-08-03T15:45:03.012Z,23.00
2017-08-03T15:47:31.334Z,22.60
2017-08-03T15:49:59.705Z,22.50
2017-08-03T15:52:28.029Z,22.20
2017-08-03T15:54:56.329Z,22.60
2017-08-03T15:57:29.081Z,23.10
2017-08-03T15:59:57.384Z,23.40
2017-08-03T16:02:25.721Z,23.80
2017-08-03T16:04:54.472Z,22.90
2017-08-03T16:07:22.867Z,22.90
2017-08-03T16:09:51.152Z,22.40
2017-08-03T16:12:19.587Z,22.20
2017-08-03T16:14:47.879Z,22.30
2017-08-03T16:17:16.238Z,22.40
2017-08-03T16:19:44.689Z,22.80
2017-08-03T16:22:13.056Z,23.20
2017-08-03T16:24:41.376Z,22.90
2017-08-03T16:27:09.873Z,23.20
2017-08-03T16:29:38.284Z,23.70
2017-08-03T16:32:06.686Z,23.90
2017-08-03T16:34:35.065Z,23.10
2017-08-03T16:37:03.400Z,23.20
2017-08-03T16:39:31.693Z,23.20
2017-08-03T16:42:00.030Z,22.30
2017-08-03T16:44:28.404Z,22.00
2017-08-03T16:46:56.742Z,22.10
2017-08-03T16:49:25.207Z,22.20
2017-08-03T16:51:53.491Z,22.20
2017-08-03T16:54:21.789Z,22.20
2017-08-03T16:56:50.112Z,21.90
2017-08-03T16:59:19.216Z,22.30
2017-08-03T17:01:47.516Z,22.20
2017-08-03T17:04:15.948Z,21.90
2017-08-03T17:06:44.262Z,21.70
2017-08-03T17:09:12.620Z,21.60
2017-08-03T17:11:41.155Z,21.50
2017-08-03T17:14:09.579Z,21.40
2017-08-03T17:16:37.916Z,21.40
2017-08-03T17:19:06.828Z,21.30
2017-08-03T17:21:35.421Z,21.40
2017-08-03T17:24:03.846Z,21.70
2017-08-03T17:26:32.540Z,22.00
2017-08-03T17:29:01.162Z,22.60
2017-08-03T17:31:29.597Z,22.80
2017-08-03T17:33:58.297Z,22.90
2017-08-03T17:36:26.843Z,23.50
2017-08-03T17:38:55.231Z,23.60
2017-08-03T17:41:23.780Z,23.60
2017-08-03T17:43:52.310Z,22.60
2017-08-03T17:46:20.830Z,22.20
2017-08-03T17:48:51.232Z,22.00
2017-08-03T17:51:21.413Z,21.60
2017-08-03T17:53:51.353Z,21.60
2017-08-03T17:56:20.650Z,21.60
2017-08-03T17:58:49.000Z,21.30
2017-08-03T18:01:17.713Z,21.10
2017-08-03T18:03:46.372Z,21.20
2017-08-03T18:06:15.156Z,20.90
2017-08-03T18:08:43.922Z,20.90
2017-08-03T18:11:12.530Z,20.80
2017-08-03T18:13:41.854Z,20.80
2017-08-03T18:16:11.480Z,20.70
2017-08-03T18:18:40.364Z,20.60
2017-08-03T18:21:09.505Z,20.50
2017-08-03T18:23:38.448Z,20.50
2017-08-03T18:26:07.281Z,20.50
2017-08-03T18:28:35.928Z,20.50
2017-08-03T18:31:05.640Z,20.30
2017-08-03T18:33:34.425Z,20.20
2017-08-03T18:36:03.239Z,20.20
2017-08-03T18:38:31.839Z,20.20
2017-08-03T18:41:00.690Z,20.00
2017-08-03T18:43:29.630Z,20.00
2017-08-03T18:45:58.281Z,19.90
2017-08-03T18:48:28.041Z,19.90
2017-08-03T18:50:56.660Z,19.90
2017-08-03T18:53:25.428Z,19.80
2017-08-03T18:55:54.062Z,19.70
2017-08-03T18:58:22.432Z,19.70
2017-08-03T19:00:50.795Z,19.70
2017-08-03T19:03:19.105Z,19.60
2017-08-03T19:05:47.456Z,19.60
2017-08-03T19:08:15.752Z,19.60
2017-08-03T19:10:44.107Z,19.60
2017-08-03T19:13:12.424Z,19.60
2017-08-03T19:15:40.865Z,19.60
2017-08-03T19:18:09.224Z,19.50
2017-08-03T19:20:37.635Z,19.50
2017-08-03T19:23:06.003Z,19.50
2017-08-03T19:25:34.296Z,19.40
2017-08-03T19:28:02.584Z,19.40
2017-08-03T19:30:30.937Z,19.30
2017-08-03T19:32:59.267Z,19.20
2017-08-03T19:35:27.567Z,19.10
2017-08-03T19:37:55.908Z,19.20
2017-08-03T19:40:24.204Z,19.10
2017-08-03T19:42:52.546Z,19.20
2017-08-03T19:45:20.876Z,19.10
2017-08-03T19:47:49.160Z,19.10
2017-08-03T19:50:17.498Z,19.10
2017-08-03T19:52:45.811Z,19.00
2017-08-03T19:55:14.136Z,18.90
2017-08-03T19:57:42.712Z,18.90
2017-08-03T20:00:11.044Z,18.80
2017-08-03T20:02:39.365Z,18.80
2017-08-03T20:05:08.726Z,18.70
2017-08-03T20:07:43.875Z,18.70
2017-08-03T20:10:13.211Z,18.70
2017-08-03T20:12:41.561Z,18.60
2017-08-03T20:15:10.036Z,18.50
2017-08-03T20:17:38.387Z,18.50
2017-08-03T20:20:06.744Z,18.50
2017-08-03T20:22:35.709Z,18.50
2017-08-03T20:25:04.093Z,18.50
2017-08-03T20:27:32.775Z,18.40
2017-08-03T20:30:02.059Z,18.40
2017-08-03T20:32:30.628Z,18.30
2017-08-03T20:34:59.366Z,18.30
2017-08-03T20:37:28.135Z,18.20
2017-08-03T20:39:56.897Z,18.30
2017-08-03T20:42:25.765Z,18.20
2017-08-03T20:44:54.156Z,18.20
2017-08-03T20:47:22.571Z,18.10
2017-08-03T20:49:50.852Z,18.00
2017-08-03T20:52:19.288Z,18.10
2017-08-03T20:54:47.575Z,18.10
2017-08-03T20:57:19.724Z,18.00
2017-08-03T20:59:48.025Z,17.90
2017-08-03T21:02:16.364Z,17.80
2017-08-03T21:04:44.714Z,17.70
2017-08-03T21:07:13.216Z,17.70
2017-08-03T21:09:41.531Z,17.70
2017-08-03T21:12:09.992Z,17.60
2017-08-03T21:14:38.364Z,17.50
2017-08-03T21:17:06.728Z,17.40
2017-08-03T21:19:35.245Z,17.30
2017-08-03T21:22:03.568Z,17.30
2017-08-03T21:24:31.860Z,17.20
2017-08-03T21:27:00.220Z,17.20
2017-08-03T21:29:32.151Z,17.20
2017-08-03T21:32:00.492Z,17.10
2017-08-03T21:34:29.227Z,17.00
2017-08-03T21:36:57.590Z,16.90
2017-08-03T21:39:25.902Z,16.90
2017-08-03T21:41:54.281Z,16.80
2017-08-03T21:44:22.640Z,16.80
2017-08-03T21:46:50.920Z,16.80
2017-08-03T21:49:19.256Z,16.70
2017-08-03T21:51:47.633Z,16.80
2017-08-03T21:54:17.193Z,16.80
2017-08-03T21:56:45.580Z,16.70
2017-08-03T21:59:16.234Z,16.60
2017-08-03T22:01:44.706Z,16.60
2017-08-03T22:04:13.096Z,16.50
2017-08-03T22:06:41.516Z,16.40
2017-08-03T22:09:16.623Z,16.30
2017-08-03T22:11:45.000Z,16.30
2017-08-03T22:14:13.292Z,16.20
2017-08-03T22:16:41.674Z,16.00
2017-08-03T22:19:10.059Z,16.10
2017-08-03T22:21:38.449Z,16.10
2017-08-03T22:24:06.813Z,16.10
2017-08-03T22:26:35.136Z,16.10
2017-08-03T22:29:03.432Z,16.10
2017-08-03T22:31:31.765Z,16.00
2017-08-03T22:34:00.053Z,15.90
2017-08-03T22:36:28.417Z,15.90
2017-08-03T22:38:56.703Z,15.80
2017-08-03T22:41:25.051Z,15.80
2017-08-03T22:43:53.345Z,15.70
2017-08-03T22:46:21.633Z,15.70
2017-08-03T22:48:49.971Z,15.70
2017-08-03T22:51:18.258Z,15.70
2017-08-03T22:53:46.592Z,15.80
2017-08-03T22:56:14.925Z,15.90
2017-08-03T22:58:43.292Z,15.90
2017-08-03T23:01:11.709Z,16.00
2017-08-03T23:03:40.060Z,16.00
2017-08-03T23:06:08.467Z,15.90
2017-08-03T23:08:36.887Z,15.90
2017-08-03T23:11:05.249Z,15.80
2017-08-03T23:13:33.588Z,15.90
2017-08-03T23:16:01.886Z,15.90
2017-08-03T23:18:31.395Z,15.90
2017-08-03T23:20:59.746Z,15.90
2017-08-03T23:23:28.227Z,15.90
2017-08-03T23:25:56.530Z,15.90
2017-08-03T23:28:24.828Z,15.90
2017-08-03T23:30:53.172Z,15.80
2017-08-03T23:33:21.476Z,15.80
2017-08-03T23:35:49.833Z,15.80
2017-08-03T23:38:18.169Z,15.70
2017-08-03T23:40:46.488Z,15.70
2017-08-03T23:43:14.846Z,15.70
2017-08-03T23:45:43.171Z,15.60
2017-08-03T23:48:11.648Z,15.60
2017-08-03T23:50:40.043Z,15.70
2017-08-03T23:53:08.443Z,15.60
2017-08-03T23:55:36.893Z,15.50
2017-08-03T23:58:05.205Z,15.40
